Berdsk, Russia
Current Conditions -  °F | °C
As of 9:30 PM on Thursday 18 Dec 2014 (Local Time) from UNNT Reporting Station
Broken Clouds Broken Clouds  
Wind Chill: -5°   Ceiling: 20000
Heat Index:   Visibility: 6mi
Dew Point:   Wind: 7mph
Humidity: 85%   Direction: 180°S
Pressure: 30.59"   Gusts: NA
Location:  54.76°N, 83.08°E
Report Text: UNNT 181430Z 18003MPS 9000 SCT015 BKN200 M14/M16 Q1036 2581016016810160 NOSIG RMK QFE767/1022
Loading
Personal Weather Stations






























Interactive Weather Map New forecast layout! Learn more

10-Day Weather Forecast

Advertisements
Track Severe Weather on mobile